createdAt,value
2018-05-11T00:00:58.168Z,71.30
2018-05-11T00:03:26.491Z,71.00
2018-05-11T00:05:54.796Z,70.50
2018-05-11T00:08:23.115Z,70.30
2018-05-11T00:10:51.412Z,70.50
2018-05-11T00:13:19.742Z,70.50
2018-05-11T00:15:48.055Z,70.50
2018-05-11T00:18:16.395Z,70.10
2018-05-11T00:20:44.709Z,70.20
2018-05-11T00:23:13.039Z,70.30
2018-05-11T00:25:41.343Z,70.20
2018-05-11T00:28:09.670Z,70.00
2018-05-11T00:30:37.975Z,70.10
2018-05-11T00:33:06.304Z,70.50
2018-05-11T00:35:34.606Z,70.40
2018-05-11T00:38:02.931Z,70.00
2018-05-11T00:40:31.231Z,69.70
2018-05-11T00:42:59.560Z,69.50
2018-05-11T00:45:27.863Z,70.30
2018-05-11T00:47:56.187Z,69.40
2018-05-11T00:50:24.496Z,69.50
2018-05-11T00:52:52.818Z,69.50
2018-05-11T00:55:33.063Z,69.40
2018-05-11T00:58:01.395Z,69.60
2018-05-11T01:00:29.700Z,69.80
2018-05-11T01:02:58.027Z,70.00
2018-05-11T01:05:25.564Z,70.00
2018-05-11T01:07:53.892Z,70.50
2018-05-11T01:10:22.196Z,71.00
2018-05-11T01:12:50.542Z,71.60
2018-05-11T01:15:18.867Z,72.00
2018-05-11T01:17:47.163Z,72.20
2018-05-11T01:20:15.491Z,72.50
2018-05-11T01:22:43.795Z,72.80
2018-05-11T01:25:12.126Z,73.80
2018-05-11T01:27:40.434Z,73.40
2018-05-11T01:30:07.996Z,73.30
2018-05-11T01:32:36.303Z,74.10
2018-05-11T01:35:04.643Z,74.50
2018-05-11T01:37:32.950Z,75.00
2018-05-11T01:40:01.287Z,75.40
2018-05-11T01:42:29.593Z,75.80
2018-05-11T01:44:58.779Z,76.20
2018-05-11T01:47:27.086Z,76.60
2018-05-11T01:49:55.410Z,76.90
2018-05-11T01:52:23.707Z,77.00
2018-05-11T01:54:52.019Z,77.20
2018-05-11T01:57:20.328Z,77.50
2018-05-11T01:59:48.659Z,77.90
2018-05-11T02:02:16.193Z,78.00
2018-05-11T02:04:44.513Z,78.70
2018-05-11T02:07:12.806Z,79.20
2018-05-11T02:09:41.122Z,79.30
2018-05-11T02:12:09.423Z,78.90
2018-05-11T02:14:37.757Z,78.80
2018-05-11T02:17:06.059Z,79.20
2018-05-11T02:19:34.382Z,79.80
2018-05-11T02:22:02.684Z,80.50
2018-05-11T02:24:31.016Z,80.70
2018-05-11T02:26:59.310Z,80.80
2018-05-11T02:29:27.627Z,80.90
2018-05-11T02:31:55.939Z,80.80
2018-05-11T02:34:24.291Z,80.90
2018-05-11T02:36:52.595Z,80.90
2018-05-11T02:39:20.921Z,80.90
2018-05-11T02:41:49.222Z,80.90
2018-05-11T02:44:17.547Z,80.80
2018-05-11T02:46:45.852Z,80.80
2018-05-11T02:49:14.179Z,82.40
2018-05-11T02:51:42.479Z,82.80
2018-05-11T02:54:10.790Z,82.70
2018-05-11T02:56:39.095Z,82.80
2018-05-11T02:59:06.635Z,82.90
2018-05-11T03:01:34.932Z,83.40
2018-05-11T03:04:03.255Z,83.70
2018-05-11T03:06:31.555Z,83.40
2018-05-11T03:08:59.882Z,83.80
2018-05-11T03:11:28.179Z,81.60
2018-05-11T03:13:56.506Z,81.60
2018-05-11T03:16:24.816Z,82.80
2018-05-11T03:18:53.118Z,82.20
2018-05-11T03:21:21.448Z,82.30
2018-05-11T03:23:49.748Z,82.20
2018-05-11T03:26:18.067Z,82.10
2018-05-11T03:28:46.363Z,82.10
2018-05-11T03:31:14.687Z,81.80
2018-05-11T03:33:42.992Z,81.80
2018-05-11T03:36:11.323Z,82.00
2018-05-11T03:38:39.632Z,82.20
2018-05-11T03:41:07.958Z,82.10
2018-05-11T03:43:36.255Z,81.90
2018-05-11T03:46:04.570Z,81.80
2018-05-11T03:48:32.871Z,81.60
2018-05-11T03:51:01.240Z,81.50
2018-05-11T03:53:29.526Z,81.60
2018-05-11T03:55:57.851Z,81.40
2018-05-11T03:58:26.151Z,82.80
2018-05-11T04:00:54.475Z,83.20
2018-05-11T04:03:48.455Z,83.40
2018-05-11T04:06:28.606Z,83.30
2018-05-11T04:08:56.902Z,83.00
2018-05-11T04:11:25.229Z,82.90
2018-05-11T04:13:53.523Z,83.10
2018-05-11T04:16:21.836Z,83.50
2018-05-11T04:18:50.135Z,83.30
2018-05-11T04:21:18.450Z,83.00
2018-05-11T04:23:46.748Z,81.50
2018-05-11T04:26:15.066Z,82.70
2018-05-11T04:28:43.367Z,81.50
2018-05-11T04:31:11.691Z,81.40
2018-05-11T04:33:40.007Z,81.20
2018-05-11T04:36:08.339Z,81.90
2018-05-11T04:38:36.635Z,81.00
2018-05-11T04:41:04.966Z,80.80
2018-05-11T04:43:33.271Z,80.60
2018-05-11T04:46:01.591Z,80.70
2018-05-11T04:48:29.890Z,80.80
2018-05-11T04:50:58.211Z,81.00
2018-05-11T04:53:26.519Z,80.90
2018-05-11T04:55:54.856Z,80.70
2018-05-11T04:58:23.151Z,80.80
2018-05-11T05:00:51.472Z,80.90
2018-05-11T05:03:19.768Z,80.40
2018-05-11T05:05:48.087Z,80.20
2018-05-11T05:08:16.383Z,80.00
2018-05-11T05:10:44.710Z,79.70
2018-05-11T05:13:13.002Z,79.80
2018-05-11T05:15:41.327Z,80.10
2018-05-11T05:18:09.623Z,80.20
2018-05-11T05:20:37.943Z,80.10
2018-05-11T05:23:06.250Z,80.10
2018-05-11T05:25:34.571Z,79.90
2018-05-11T05:28:02.874Z,79.70
2018-05-11T05:30:31.271Z,79.50
2018-05-11T05:32:59.605Z,79.10
2018-05-11T05:35:27.937Z,78.90
2018-05-11T05:37:56.252Z,78.50
2018-05-11T05:40:24.575Z,78.30
2018-05-11T05:42:52.878Z,78.30
2018-05-11T05:45:21.179Z,78.10
2018-05-11T05:47:49.499Z,77.70
2018-05-11T05:50:17.796Z,77.60
2018-05-11T05:52:46.119Z,77.60
2018-05-11T05:55:14.423Z,77.50
2018-05-11T05:57:42.751Z,77.20
2018-05-11T06:00:11.047Z,76.70
2018-05-11T06:02:39.381Z,76.40
2018-05-11T06:05:07.682Z,75.40
2018-05-11T06:07:36.009Z,75.40
2018-05-11T06:10:04.306Z,75.00
2018-05-11T06:12:32.624Z,74.60
2018-05-11T06:15:00.931Z,73.10
2018-05-11T06:17:28.512Z,73.10
2018-05-11T06:19:56.820Z,69.20
2018-05-11T06:22:25.144Z,67.60
2018-05-11T06:24:53.473Z,66.60
2018-05-11T06:27:21.864Z,65.70
2018-05-11T06:29:50.107Z,64.20
2018-05-11T06:32:18.448Z,63.80
2018-05-11T06:34:46.744Z,63.20
2018-05-11T06:37:15.071Z,63.40
2018-05-11T06:39:43.371Z,63.50
2018-05-11T06:42:11.692Z,63.20
2018-05-11T06:44:40.006Z,63.30
2018-05-11T06:47:08.343Z,63.70
2018-05-11T06:49:36.648Z,63.80
2018-05-11T06:52:04.967Z,64.20
2018-05-11T06:54:33.272Z,65.30
2018-05-11T06:57:01.594Z,65.50
2018-05-11T06:59:29.158Z,65.50
2018-05-11T07:01:57.482Z,64.90
2018-05-11T07:04:25.790Z,65.40
2018-05-11T07:06:54.110Z,66.60
2018-05-11T07:09:22.415Z,67.10
2018-05-11T07:11:50.746Z,66.50
2018-05-11T07:14:19.044Z,65.60
2018-05-11T07:16:47.376Z,64.10
2018-05-11T07:19:15.677Z,62.90
2018-05-11T07:21:44.003Z,63.20
2018-05-11T07:24:12.308Z,62.80
2018-05-11T07:26:40.628Z,62.40
2018-05-11T07:29:08.929Z,61.40
2018-05-11T07:31:37.255Z,60.50
2018-05-11T07:34:05.563Z,59.70
2018-05-11T07:36:33.904Z,59.20
2018-05-11T07:39:02.200Z,58.80
2018-05-11T07:41:30.531Z,58.50
2018-05-11T07:43:58.827Z,58.30
2018-05-11T07:46:27.147Z,58.20
2018-05-11T07:48:55.463Z,58.00
2018-05-11T07:51:23.770Z,57.70
2018-05-11T07:53:52.091Z,57.10
2018-05-11T07:56:20.383Z,56.00
2018-05-11T07:58:48.703Z,55.30
2018-05-11T08:01:16.239Z,55.30
2018-05-11T08:03:44.556Z,54.70
2018-05-11T08:06:12.851Z,53.80
2018-05-11T08:08:41.168Z,54.00
2018-05-11T08:11:09.472Z,54.00
2018-05-11T08:13:37.795Z,53.60
2018-05-11T08:16:06.085Z,52.00
2018-05-11T08:18:34.407Z,52.00
2018-05-11T08:21:02.703Z,51.90
2018-05-11T08:23:31.032Z,51.90
2018-05-11T08:25:59.331Z,51.40
2018-05-11T08:28:27.650Z,49.40
2018-05-11T08:30:55.951Z,47.70
2018-05-11T08:33:24.279Z,47.90
2018-05-11T08:35:52.643Z,47.30
2018-05-11T08:38:20.906Z,47.30
2018-05-11T08:40:48.435Z,47.80
2018-05-11T08:43:16.763Z,47.50
2018-05-11T08:45:45.059Z,47.40
2018-05-11T08:48:13.380Z,47.00
2018-05-11T08:50:41.679Z,46.30
2018-05-11T08:53:10.003Z,45.70
2018-05-11T08:55:38.299Z,44.80
2018-05-11T08:58:06.619Z,44.90
2018-05-11T09:00:34.910Z,45.30
2018-05-11T09:03:03.297Z,44.40
2018-05-11T09:05:30.774Z,44.00
2018-05-11T09:07:58.323Z,44.00
2018-05-11T09:10:26.640Z,44.60
2018-05-11T09:12:54.958Z,45.20
2018-05-11T09:15:23.254Z,44.00
2018-05-11T09:17:51.575Z,43.60
2018-05-11T09:20:19.873Z,44.70
2018-05-11T09:22:48.213Z,45.40
2018-05-11T09:25:16.661Z,45.00
2018-05-11T09:27:44.978Z,44.80
2018-05-11T09:30:13.266Z,44.80
2018-05-11T09:32:41.585Z,44.80
2018-05-11T09:35:09.878Z,43.70
2018-05-11T09:37:38.198Z,43.70
2018-05-11T09:40:06.491Z,41.50
2018-05-11T09:42:34.787Z,41.30
2018-05-11T09:45:03.102Z,40.30
2018-05-11T09:47:31.398Z,40.40
2018-05-11T09:49:59.705Z,41.20
2018-05-11T09:52:28.002Z,42.80
2018-05-11T09:54:55.552Z,42.70
2018-05-11T09:57:23.843Z,42.20
2018-05-11T09:59:52.158Z,42.10
2018-05-11T10:02:20.454Z,42.10
2018-05-11T10:04:48.766Z,42.60
2018-05-11T10:07:17.062Z,43.60
2018-05-11T10:09:45.387Z,43.70
2018-05-11T10:12:13.689Z,43.60
2018-05-11T10:14:42.016Z,43.10
2018-05-11T10:17:10.315Z,42.70
2018-05-11T10:19:38.643Z,42.40
2018-05-11T10:22:06.934Z,42.60
2018-05-11T10:24:35.248Z,42.40
2018-05-11T10:27:03.542Z,42.10
2018-05-11T10:29:31.868Z,41.80
2018-05-11T10:32:00.160Z,41.90
2018-05-11T10:34:28.535Z,41.10
2018-05-11T10:36:56.816Z,41.00
2018-05-11T10:39:25.135Z,40.60
2018-05-11T10:41:53.427Z,40.80
2018-05-11T10:44:21.747Z,40.00
2018-05-11T10:46:50.039Z,39.10
2018-05-11T10:49:18.355Z,39.60
2018-05-11T10:51:46.649Z,39.10
2018-05-11T10:54:14.972Z,38.10
2018-05-11T10:56:43.275Z,37.90
2018-05-11T10:59:10.826Z,37.90
2018-05-11T11:01:39.125Z,36.80
2018-05-11T11:04:07.429Z,36.10
2018-05-11T11:06:35.719Z,35.10
2018-05-11T11:09:04.031Z,36.00
2018-05-11T11:11:32.324Z,36.10
2018-05-11T11:14:00.638Z,36.40
2018-05-11T11:16:28.956Z,36.50
2018-05-11T11:18:57.266Z,35.90
2018-05-11T11:21:25.556Z,35.20
2018-05-11T11:23:53.883Z,34.80
2018-05-11T11:26:22.178Z,34.60
2018-05-11T11:28:50.490Z,33.40
2018-05-11T11:31:18.791Z,34.80
2018-05-11T11:33:47.111Z,35.90
2018-05-11T11:36:15.399Z,37.30
2018-05-11T11:38:43.723Z,35.80
2018-05-11T11:41:12.043Z,34.40
2018-05-11T11:43:40.331Z,34.40
2018-05-11T11:46:07.883Z,34.40
2018-05-11T11:48:36.167Z,34.80
2018-05-11T11:51:04.484Z,33.70
2018-05-11T11:53:32.774Z,33.30
2018-05-11T11:56:01.087Z,32.60
2018-05-11T11:58:29.380Z,31.00
2018-05-11T12:00:57.696Z,30.90
2018-05-11T12:03:25.995Z,31.00
2018-05-11T12:05:54.331Z,30.40
2018-05-11T12:08:22.631Z,31.00
2018-05-11T12:10:50.948Z,30.60
2018-05-11T12:13:19.250Z,30.40
2018-05-11T12:15:47.671Z,30.60
2018-05-11T12:18:15.886Z,31.20
2018-05-11T12:20:44.208Z,31.20
2018-05-11T12:23:12.504Z,32.40
2018-05-11T12:25:40.046Z,32.30
2018-05-11T12:28:08.343Z,32.30
2018-05-11T12:30:36.751Z,31.80
2018-05-11T12:33:04.971Z,32.30
2018-05-11T12:35:33.291Z,31.50
2018-05-11T12:38:01.576Z,31.00
2018-05-11T12:40:29.893Z,31.30
2018-05-11T12:42:58.182Z,32.30
2018-05-11T12:45:26.531Z,32.10
2018-05-11T12:47:54.835Z,32.90
2018-05-11T12:50:23.155Z,32.80
2018-05-11T12:52:51.483Z,33.60
2018-05-11T12:55:19.777Z,34.00
2018-05-11T12:57:48.073Z,34.60
2018-05-11T13:00:16.397Z,34.70
2018-05-11T13:02:44.691Z,33.60
2018-05-11T13:05:13.008Z,32.10
2018-05-11T13:07:41.300Z,31.20
2018-05-11T13:10:09.616Z,31.20
2018-05-11T13:12:37.915Z,31.40
2018-05-11T13:15:06.227Z,31.90
2018-05-11T13:17:34.524Z,33.20
2018-05-11T13:20:02.831Z,33.70
2018-05-11T13:22:31.123Z,33.00
2018-05-11T13:24:58.671Z,32.90
2018-05-11T13:27:26.187Z,33.40
2018-05-11T13:29:54.511Z,32.80
2018-05-11T13:32:22.794Z,31.90
2018-05-11T13:34:51.110Z,32.80
2018-05-11T13:37:19.398Z,33.50
2018-05-11T13:39:47.687Z,34.00
2018-05-11T13:42:16.002Z,34.20
2018-05-11T13:44:44.289Z,34.00
2018-05-11T13:47:12.606Z,34.00
2018-05-11T13:49:40.904Z,32.80
2018-05-11T13:52:09.228Z,32.90
2018-05-11T13:54:37.518Z,33.20
2018-05-11T13:57:05.826Z,32.30
2018-05-11T13:59:34.111Z,32.10
2018-05-11T14:02:02.437Z,33.00
2018-05-11T14:04:30.792Z,32.70
2018-05-11T14:06:59.071Z,33.20
2018-05-11T14:09:27.359Z,33.50
2018-05-11T14:11:55.673Z,33.70
2018-05-11T14:14:23.987Z,34.20
2018-05-11T14:16:51.531Z,34.20
2018-05-11T14:19:19.822Z,33.00
2018-05-11T14:21:48.135Z,32.30
2018-05-11T14:24:16.427Z,32.30
2018-05-11T14:26:44.738Z,32.00
2018-05-11T14:29:13.026Z,31.30
2018-05-11T14:31:41.340Z,32.00
2018-05-11T14:34:09.630Z,32.70
2018-05-11T14:36:37.944Z,33.00
2018-05-11T14:39:06.237Z,32.90
2018-05-11T14:41:34.555Z,33.10
2018-05-11T14:44:02.846Z,33.10
2018-05-11T14:46:31.171Z,33.60
2018-05-11T14:48:59.463Z,34.00
2018-05-11T14:51:27.780Z,34.00
2018-05-11T14:53:56.082Z,34.40
2018-05-11T14:56:24.399Z,33.80
2018-05-11T14:58:52.699Z,33.90
2018-05-11T15:01:21.019Z,34.20
2018-05-11T15:03:49.315Z,34.70
2018-05-11T15:06:17.635Z,34.60
2018-05-11T15:08:45.937Z,34.40
2018-05-11T15:11:14.251Z,33.30
2018-05-11T15:13:42.539Z,33.40
2018-05-11T15:16:10.845Z,34.00
2018-05-11T15:18:39.141Z,34.10
2018-05-11T15:21:06.683Z,34.10
2018-05-11T15:23:34.972Z,33.90
2018-05-11T15:26:03.287Z,34.00
2018-05-11T15:28:31.583Z,34.20
2018-05-11T15:30:59.946Z,34.60
2018-05-11T15:33:28.235Z,34.50
2018-05-11T15:35:56.543Z,34.70
2018-05-11T15:38:24.851Z,34.00
2018-05-11T15:40:53.156Z,33.30
2018-05-11T15:43:21.472Z,34.10
2018-05-11T15:45:49.759Z,34.80
2018-05-11T15:48:18.071Z,34.70
2018-05-11T15:50:46.367Z,34.40
2018-05-11T15:53:14.678Z,34.30
2018-05-11T15:55:42.970Z,34.60
2018-05-11T15:58:11.279Z,34.80
2018-05-11T16:00:39.572Z,35.20
2018-05-11T16:03:07.892Z,35.30
2018-05-11T16:05:37.117Z,35.60
2018-05-11T16:08:05.442Z,35.70
2018-05-11T16:10:33.734Z,35.60
2018-05-11T16:13:02.057Z,35.50
2018-05-11T16:15:30.358Z,35.50
2018-05-11T16:17:58.675Z,35.40
2018-05-11T16:20:27.067Z,36.20
2018-05-11T16:22:55.306Z,36.80
2018-05-11T16:25:23.599Z,36.40
2018-05-11T16:27:51.907Z,35.70
2018-05-11T16:30:20.190Z,35.40
2018-05-11T16:32:48.503Z,34.80
2018-05-11T16:35:16.790Z,34.20
2018-05-11T16:37:45.107Z,34.30
2018-05-11T16:40:13.406Z,34.10
2018-05-11T16:42:41.728Z,33.60
2018-05-11T16:45:10.019Z,33.50
2018-05-11T16:47:38.363Z,33.90
2018-05-11T16:50:06.676Z,34.20
2018-05-11T16:52:34.989Z,34.80
2018-05-11T16:55:03.305Z,35.50
2018-05-11T16:57:31.627Z,36.00
2018-05-11T16:59:59.921Z,36.80
2018-05-11T17:02:28.799Z,37.60
2018-05-11T17:04:57.100Z,37.70
2018-05-11T17:07:25.419Z,37.70
2018-05-11T17:09:53.726Z,36.30
2018-05-11T17:12:22.052Z,33.10
2018-05-11T17:14:50.340Z,31.10
2018-05-11T17:17:18.655Z,30.40
2018-05-11T17:19:46.947Z,29.90
2018-05-11T17:22:14.495Z,29.90
2018-05-11T17:24:42.787Z,27.80
2018-05-11T17:27:11.099Z,28.30
2018-05-11T17:29:39.393Z,28.20
2018-05-11T17:32:07.722Z,27.60
2018-05-11T17:34:36.007Z,27.50
2018-05-11T17:37:04.295Z,27.40
2018-05-11T17:39:32.618Z,27.00
2018-05-11T17:42:00.907Z,26.60
2018-05-11T17:44:29.228Z,26.40
2018-05-11T17:46:57.527Z,26.20
2018-05-11T17:49:25.844Z,26.70
2018-05-11T17:51:54.146Z,27.10
2018-05-11T17:54:22.467Z,27.40
2018-05-11T17:56:50.753Z,27.70
2018-05-11T17:59:19.068Z,27.90
2018-05-11T18:01:46.600Z,28.30
2018-05-11T18:04:14.910Z,27.50
2018-05-11T18:06:43.268Z,28.00
2018-05-11T18:09:11.539Z,28.30
2018-05-11T18:11:39.068Z,28.30
2018-05-11T18:14:07.402Z,28.90
2018-05-11T18:16:35.691Z,29.40
2018-05-11T18:19:04.102Z,30.00
2018-05-11T18:21:32.320Z,30.40
2018-05-11T18:24:00.640Z,31.50
2018-05-11T18:26:28.927Z,33.10
2018-05-11T18:28:57.246Z,34.80
2018-05-11T18:31:25.539Z,36.60
2018-05-11T18:33:53.852Z,39.00
2018-05-11T18:36:21.371Z,39.00
2018-05-11T18:38:49.687Z,42.30
2018-05-11T18:41:18.001Z,43.50
2018-05-11T18:43:46.311Z,44.10
2018-05-11T18:46:14.599Z,44.60
2018-05-11T18:48:42.138Z,44.60
2018-05-11T18:51:10.443Z,45.40
2018-05-11T18:53:39.229Z,45.70
2018-05-11T18:56:07.082Z,46.00
2018-05-11T18:58:35.396Z,46.50
2018-05-11T19:01:03.693Z,47.20
2018-05-11T19:03:32.016Z,47.80
2018-05-11T19:06:00.332Z,48.40
2018-05-11T19:08:28.647Z,48.90
2018-05-11T19:10:57.831Z,49.50
2018-05-11T19:13:26.145Z,50.30
2018-05-11T19:15:54.591Z,50.60
2018-05-11T19:18:22.911Z,51.40
2018-05-11T19:20:51.218Z,51.00
2018-05-11T19:23:19.550Z,51.20
2018-05-11T19:25:47.096Z,51.20
2018-05-11T19:28:15.418Z,52.00
2018-05-11T19:30:43.715Z,52.50
2018-05-11T19:33:12.034Z,52.90
2018-05-11T19:35:40.351Z,53.30
2018-05-11T19:38:08.667Z,53.60
2018-05-11T19:40:36.987Z,54.10
2018-05-11T19:43:05.271Z,54.70
2018-05-11T19:45:33.592Z,55.30
2018-05-11T19:48:01.886Z,55.20
2018-05-11T19:50:30.234Z,55.30
2018-05-11T19:52:58.527Z,55.60
2018-05-11T19:55:26.854Z,56.10
2018-05-11T19:57:55.154Z,56.90
2018-05-11T20:00:23.504Z,57.00
2018-05-11T20:02:51.794Z,57.10
2018-05-11T20:05:20.106Z,57.40
2018-05-11T20:07:48.399Z,57.50
2018-05-11T20:10:16.743Z,57.80
2018-05-11T20:12:45.050Z,58.00
2018-05-11T20:15:13.383Z,58.30
2018-05-11T20:17:41.700Z,58.70
2018-05-11T20:20:10.014Z,58.90
2018-05-11T20:22:38.317Z,59.10
2018-05-11T20:25:06.634Z,59.50
2018-05-11T20:27:34.166Z,59.50
2018-05-11T20:30:02.483Z,60.20
2018-05-11T20:32:30.800Z,60.50
2018-05-11T20:34:59.111Z,60.70
2018-05-11T20:37:27.417Z,60.90
2018-05-11T20:39:55.746Z,61.60
2018-05-11T20:42:24.046Z,62.10
2018-05-11T20:44:52.372Z,62.40
2018-05-11T20:47:19.898Z,62.30
2018-05-11T20:49:48.219Z,63.20
2018-05-11T20:52:15.758Z,63.20
2018-05-11T20:54:44.078Z,64.40
2018-05-11T20:57:12.370Z,64.90
2018-05-11T20:59:40.694Z,65.80
2018-05-11T21:02:08.991Z,65.70
2018-05-11T21:04:37.311Z,66.00
2018-05-11T21:07:05.606Z,66.70
2018-05-11T21:09:33.922Z,66.50
2018-05-11T21:12:02.218Z,66.60
2018-05-11T21:14:30.642Z,66.60
2018-05-11T21:16:58.083Z,66.50
2018-05-11T21:19:26.406Z,66.70
2018-05-11T21:21:54.698Z,66.90
2018-05-11T21:24:23.021Z,66.90
2018-05-11T21:26:51.319Z,67.20
2018-05-11T21:29:19.620Z,67.40
2018-05-11T21:31:47.943Z,68.00
2018-05-11T21:34:16.245Z,68.30
2018-05-11T21:36:44.575Z,68.40
2018-05-11T21:39:12.871Z,68.60
2018-05-11T21:41:41.195Z,68.80
2018-05-11T21:44:09.491Z,69.00
2018-05-11T21:46:37.814Z,69.30
2018-05-11T21:49:06.112Z,69.80
2018-05-11T21:51:34.430Z,70.00
2018-05-11T21:54:02.736Z,70.20
2018-05-11T21:56:31.058Z,70.40
2018-05-11T21:58:58.613Z,70.40
2018-05-11T22:01:26.939Z,70.90
2018-05-11T22:03:55.231Z,70.90
2018-05-11T22:06:23.558Z,70.80
2018-05-11T22:08:51.859Z,71.00
2018-05-11T22:11:20.179Z,71.10
2018-05-11T22:13:48.487Z,71.40
2018-05-11T22:16:16.811Z,71.60
2018-05-11T22:18:45.111Z,72.50
2018-05-11T22:21:13.434Z,71.50
2018-05-11T22:23:41.732Z,71.80
2018-05-11T22:26:10.058Z,72.10
2018-05-11T22:28:38.367Z,72.70
2018-05-11T22:31:06.686Z,72.70
2018-05-11T22:33:34.978Z,72.40
2018-05-11T22:36:03.299Z,72.60
2018-05-11T22:38:31.595Z,72.90
2018-05-11T22:40:59.918Z,72.90
2018-05-11T22:43:28.216Z,72.80
2018-05-11T22:45:56.541Z,73.00
2018-05-11T22:48:24.843Z,73.10
2018-05-11T22:50:53.167Z,73.40
2018-05-11T22:53:21.471Z,73.50
2018-05-11T22:55:49.801Z,73.90
2018-05-11T22:58:18.110Z,74.00
2018-05-11T23:00:45.666Z,74.00
2018-05-11T23:03:13.976Z,73.90
2018-05-11T23:05:42.290Z,74.10
2018-05-11T23:08:10.591Z,74.10
2018-05-11T23:10:38.907Z,74.30
2018-05-11T23:13:07.210Z,74.40
2018-05-11T23:15:35.532Z,74.20
2018-05-11T23:18:03.076Z,74.20
2018-05-11T23:20:31.399Z,74.30
2018-05-11T23:22:59.695Z,74.20
2018-05-11T23:25:27.997Z,74.50
2018-05-11T23:27:56.371Z,74.70
2018-05-11T23:30:24.671Z,75.30
2018-05-11T23:32:52.996Z,75.70
2018-05-11T23:35:21.286Z,75.60
2018-05-11T23:37:49.616Z,75.50
2018-05-11T23:40:17.911Z,75.50
2018-05-11T23:42:46.235Z,75.50
2018-05-11T23:45:13.775Z,75.50
2018-05-11T23:47:42.094Z,75.70
2018-05-11T23:50:10.387Z,75.70
2018-05-11T23:52:38.719Z,75.70
2018-05-11T23:55:07.025Z,75.60
2018-05-11T23:57:35.346Z,75.90
